createdAt,value
2023-08-14T00:00:32.183Z,91
2023-08-14T00:01:39.397Z,91
2023-08-14T00:02:45.925Z,91
2023-08-14T00:03:53.231Z,91
2023-08-14T00:05:00.232Z,91
2023-08-14T00:06:07.229Z,91
2023-08-14T00:07:14.315Z,91
2023-08-14T00:08:20.972Z,91
2023-08-14T00:09:28.030Z,91
2023-08-14T00:10:35.197Z,91
2023-08-14T00:11:42.217Z,91
2023-08-14T00:12:49.374Z,91
2023-08-14T00:13:56.087Z,91
2023-08-14T00:15:03.008Z,91
2023-08-14T00:16:10.280Z,91
2023-08-14T00:17:17.235Z,91
2023-08-14T00:18:24.381Z,91
2023-08-14T00:19:30.945Z,91
2023-08-14T00:20:38.052Z,91
2023-08-14T00:21:45.120Z,91
2023-08-14T00:22:52.217Z,91
2023-08-14T00:23:59.366Z,92
2023-08-14T00:25:05.957Z,92
2023-08-14T00:26:13.009Z,92
2023-08-14T00:27:20.182Z,92
2023-08-14T00:28:27.261Z,92
2023-08-14T00:29:34.305Z,92
2023-08-14T00:30:40.946Z,92
2023-08-14T00:31:48.034Z,92
2023-08-14T00:32:55.198Z,92
2023-08-14T00:34:02.274Z,92
2023-08-14T00:35:08.880Z,92
2023-08-14T00:36:15.938Z,92
2023-08-14T00:37:23.000Z,92
2023-08-14T00:38:30.179Z,92
2023-08-14T00:39:37.254Z,92
2023-08-14T00:40:43.825Z,92
2023-08-14T00:41:50.931Z,92
2023-08-14T00:44:05.175Z,92
2023-08-14T00:45:12.235Z,92
2023-08-14T00:46:18.876Z,92
2023-08-14T00:47:26.029Z,92
2023-08-14T00:48:33.045Z,92
2023-08-14T00:49:40.263Z,92
2023-08-14T00:50:47.283Z,92
2023-08-14T00:51:53.852Z,92
2023-08-14T00:53:00.995Z,92
2023-08-14T00:54:08.081Z,92
2023-08-14T00:55:15.263Z,92
2023-08-14T00:56:22.256Z,92
2023-08-14T00:57:28.899Z,92
2023-08-14T00:58:35.972Z,92
2023-08-14T00:59:43.071Z,92
2023-08-14T01:00:50.240Z,92
2023-08-14T01:03:03.895Z,92
2023-08-14T01:04:11.065Z,92
2023-08-14T01:05:18.117Z,92
2023-08-14T01:06:25.211Z,93
2023-08-14T01:07:32.279Z,93
2023-08-14T01:08:38.893Z,92
2023-08-14T01:09:45.982Z,93
2023-08-14T01:10:53.056Z,93
2023-08-14T01:12:00.222Z,93
2023-08-14T01:13:07.321Z,92
2023-08-14T01:14:13.869Z,92
2023-08-14T01:15:20.990Z,93
2023-08-14T01:16:28.184Z,92
2023-08-14T01:17:35.227Z,92
2023-08-14T01:18:42.297Z,92
2023-08-14T01:19:48.971Z,93
2023-08-14T01:20:56.016Z,93
2023-08-14T01:22:03.214Z,93
2023-08-14T01:23:10.213Z,93
2023-08-14T01:24:17.364Z,93
2023-08-14T01:25:23.881Z,93
2023-08-14T01:26:30.997Z,93
2023-08-14T01:27:38.148Z,92
2023-08-14T01:28:45.231Z,92
2023-08-14T01:29:52.334Z,92
2023-08-14T01:30:58.996Z,92
2023-08-14T01:32:06.013Z,92
2023-08-14T01:33:13.121Z,92
2023-08-14T01:34:20.233Z,92
2023-08-14T01:35:26.837Z,92
2023-08-14T01:36:33.913Z,92
2023-08-14T01:37:41.008Z,92
2023-08-14T01:38:48.117Z,91
2023-08-14T01:39:55.207Z,91
2023-08-14T01:41:02.318Z,91
2023-08-14T01:42:08.941Z,91
2023-08-14T01:43:16.061Z,91
2023-08-14T01:44:23.151Z,91
2023-08-14T01:45:30.274Z,91
2023-08-14T01:47:43.964Z,91
2023-08-14T01:48:51.050Z,91
2023-08-14T01:49:58.203Z,91
2023-08-14T01:51:05.262Z,91
2023-08-14T01:52:11.869Z,91
2023-08-14T01:53:18.967Z,92
2023-08-14T01:54:26.106Z,92
2023-08-14T01:55:33.152Z,92
2023-08-14T01:56:40.250Z,92
2023-08-14T01:57:46.857Z,92
2023-08-14T01:58:53.989Z,92
2023-08-14T02:00:01.086Z,92
2023-08-14T02:01:08.192Z,92
2023-08-14T02:02:15.538Z,92
2023-08-14T02:03:21.919Z,92
2023-08-14T02:04:29.000Z,92
2023-08-14T02:05:36.637Z,92
2023-08-14T02:06:43.163Z,92
2023-08-14T02:07:50.260Z,92
2023-08-14T02:08:56.861Z,92
2023-08-14T02:10:03.981Z,92
2023-08-14T02:11:11.085Z,92
2023-08-14T02:12:18.507Z,92
2023-08-14T02:13:25.273Z,92
2023-08-14T02:14:31.869Z,92
2023-08-14T02:15:39.037Z,92
2023-08-14T02:16:46.075Z,92
2023-08-14T02:17:53.235Z,92
2023-08-14T02:19:00.308Z,92
2023-08-14T02:20:06.964Z,92
2023-08-14T02:21:13.992Z,92
2023-08-14T02:22:21.038Z,92
2023-08-14T02:23:28.194Z,92
2023-08-14T02:24:35.381Z,92
2023-08-14T02:25:41.859Z,93
2023-08-14T02:26:49.003Z,92
2023-08-14T02:27:56.125Z,92
2023-08-14T02:29:03.192Z,92
2023-08-14T02:31:16.951Z,92
2023-08-14T02:32:23.998Z,92
2023-08-14T02:33:31.090Z,92
2023-08-14T02:34:38.178Z,93
2023-08-14T02:35:45.320Z,93
2023-08-14T02:36:51.886Z,93
2023-08-14T02:37:59.014Z,93
2023-08-14T02:39:06.112Z,94
2023-08-14T02:40:13.213Z,94
2023-08-14T02:41:21.373Z,95
2023-08-14T02:42:26.946Z,95
2023-08-14T02:43:34.064Z,95
2023-08-14T02:44:41.110Z,95
2023-08-14T02:45:48.303Z,95
2023-08-14T02:46:54.808Z,96
2023-08-14T02:48:01.893Z,96
2023-08-14T02:49:09.050Z,96
2023-08-14T02:51:23.281Z,96
2023-08-14T02:52:29.806Z,96
2023-08-14T02:53:36.901Z,96
2023-08-14T02:54:44.077Z,96
2023-08-14T02:55:51.108Z,96
2023-08-14T02:56:58.302Z,96
2023-08-14T02:58:04.828Z,96
2023-08-14T02:59:11.923Z,96
2023-08-14T03:00:19.060Z,96
2023-08-14T03:01:26.229Z,96
2023-08-14T03:02:33.441Z,96
2023-08-14T03:03:39.877Z,96
2023-08-14T03:04:46.957Z,97
2023-08-14T03:05:54.003Z,97
2023-08-14T03:07:01.144Z,98
2023-08-14T03:08:08.268Z,97
2023-08-14T03:09:15.379Z,97
2023-08-14T03:10:21.914Z,97
2023-08-14T03:11:29.064Z,98
2023-08-14T03:12:36.171Z,97
2023-08-14T03:13:43.231Z,97
2023-08-14T03:14:49.882Z,97
2023-08-14T03:15:56.964Z,97
2023-08-14T03:17:04.039Z,97
2023-08-14T03:18:11.152Z,97
2023-08-14T03:19:18.283Z,97
2023-08-14T03:20:24.896Z,97
2023-08-14T03:21:31.944Z,97
2023-08-14T03:22:39.079Z,96
2023-08-14T03:23:46.189Z,96
2023-08-14T03:24:53.299Z,96
2023-08-14T03:25:59.880Z,96
2023-08-14T03:27:06.968Z,96
2023-08-14T03:28:14.046Z,96
2023-08-14T03:29:21.151Z,96
2023-08-14T03:30:28.291Z,96
2023-08-14T03:31:34.872Z,96
2023-08-14T03:32:41.982Z,96
2023-08-14T03:33:50.147Z,96
2023-08-14T03:34:56.199Z,96
2023-08-14T03:36:03.282Z,97
2023-08-14T03:37:12.519Z,97
2023-08-14T03:38:16.999Z,97
2023-08-14T03:39:24.154Z,97
2023-08-14T03:40:31.192Z,97
2023-08-14T03:41:38.326Z,97
2023-08-14T03:42:44.926Z,97
2023-08-14T03:43:51.979Z,97
2023-08-14T03:44:59.122Z,97
2023-08-14T03:46:06.291Z,98
2023-08-14T03:47:12.783Z,98
2023-08-14T03:48:19.924Z,98
2023-08-14T03:49:26.988Z,98
2023-08-14T03:50:34.201Z,98
2023-08-14T03:51:41.168Z,98
2023-08-14T03:52:47.812Z,98
2023-08-14T03:55:01.969Z,98
2023-08-14T03:56:09.237Z,98
2023-08-14T03:57:16.230Z,98
2023-08-14T03:59:29.886Z,98
2023-08-14T04:00:37.005Z,98
2023-08-14T04:01:44.278Z,98
2023-08-14T04:02:51.275Z,98
2023-08-14T04:03:57.930Z,98
2023-08-14T04:05:04.914Z,98
2023-08-14T04:06:12.008Z,98
2023-08-14T04:07:19.111Z,98
2023-08-14T04:08:26.228Z,98
2023-08-14T04:09:32.802Z,98
2023-08-14T04:10:39.966Z,98
2023-08-14T04:11:47.012Z,98
2023-08-14T04:12:56.366Z,98
2023-08-14T04:14:01.239Z,98
2023-08-14T04:15:07.834Z,98
2023-08-14T04:16:15.109Z,98
2023-08-14T04:17:21.999Z,98
2023-08-14T04:18:29.205Z,98
2023-08-14T04:19:36.272Z,98
2023-08-14T04:20:42.857Z,98
2023-08-14T04:21:49.918Z,98
2023-08-14T04:22:57.081Z,98
2023-08-14T04:24:04.138Z,98
2023-08-14T04:25:11.279Z,98
2023-08-14T04:26:17.833Z,98
2023-08-14T04:27:24.962Z,98
2023-08-14T04:28:32.043Z,98
2023-08-14T04:29:39.286Z,98
2023-08-14T04:30:46.270Z,98
2023-08-14T04:31:52.915Z,98
2023-08-14T04:33:00.013Z,98
2023-08-14T04:34:07.056Z,98
2023-08-14T04:35:14.238Z,98
2023-08-14T04:36:21.266Z,98
2023-08-14T04:37:27.881Z,98
2023-08-14T04:38:34.999Z,98
2023-08-14T04:39:42.075Z,98
2023-08-14T04:40:49.210Z,98
2023-08-14T04:41:56.319Z,98
2023-08-14T04:43:02.851Z,98
2023-08-14T04:44:10.000Z,98
2023-08-14T04:45:17.152Z,98
2023-08-14T04:46:24.199Z,98
2023-08-14T04:47:31.305Z,98
2023-08-14T05:08:44.190Z,98
2023-08-14T05:09:50.781Z,98
2023-08-14T05:10:57.935Z,98
2023-08-14T05:12:05.048Z,98
2023-08-14T05:13:12.088Z,98
2023-08-14T05:14:19.242Z,98
2023-08-14T05:16:33.529Z,98
2023-08-14T05:17:40.080Z,98
2023-08-14T05:18:47.075Z,98
2023-08-14T05:19:54.213Z,98
2023-08-14T05:21:00.805Z,98
2023-08-14T05:22:07.958Z,98
2023-08-14T05:24:22.128Z,98
2023-08-14T05:25:29.253Z,98
2023-08-14T05:28:50.081Z,98
2023-08-14T05:32:10.822Z,98
2023-08-14T05:33:17.901Z,98
2023-08-14T05:34:25.042Z,98
2023-08-14T05:35:32.091Z,98
2023-08-14T05:36:39.271Z,98
2023-08-14T05:37:45.861Z,98
2023-08-14T05:38:52.939Z,98
2023-08-14T05:40:00.199Z,98
2023-08-14T05:41:07.160Z,98
2023-08-14T05:42:14.231Z,98
2023-08-14T05:43:20.791Z,98
2023-08-14T05:44:27.965Z,98
2023-08-14T05:45:35.099Z,98
2023-08-14T05:46:42.152Z,98
2023-08-14T05:47:49.302Z,98
2023-08-14T05:48:55.897Z,98
2023-08-14T05:50:03.000Z,98
2023-08-14T05:51:10.060Z,98
2023-08-14T05:52:17.606Z,98
2023-08-14T05:53:24.234Z,98
2023-08-14T05:54:30.823Z,98
2023-08-14T05:55:37.947Z,98
2023-08-14T05:56:45.127Z,98
2023-08-14T05:57:52.168Z,98
2023-08-14T05:58:59.354Z,98
2023-08-14T06:00:05.904Z,98
2023-08-14T06:01:12.990Z,98
2023-08-14T06:02:20.355Z,98
2023-08-14T06:03:42.092Z,98
2023-08-14T06:04:33.884Z,98
2023-08-14T06:05:40.825Z,98
2023-08-14T06:06:48.001Z,98
2023-08-14T06:07:55.126Z,98
2023-08-14T06:09:02.161Z,98
2023-08-14T06:10:08.777Z,98
2023-08-14T06:11:15.894Z,98
2023-08-14T06:12:23.427Z,98
2023-08-14T06:13:30.088Z,98
2023-08-14T06:14:40.356Z,98
2023-08-14T06:15:43.786Z,98
2023-08-14T06:16:50.972Z,98
2023-08-14T06:17:58.053Z,98
2023-08-14T06:19:05.233Z,98
2023-08-14T06:20:12.260Z,98
2023-08-14T06:21:18.764Z,98
2023-08-14T06:22:25.904Z,98
2023-08-14T06:23:32.968Z,98
2023-08-14T06:24:40.103Z,98
2023-08-14T06:25:47.495Z,98
2023-08-14T06:26:53.795Z,98
2023-08-14T06:28:01.017Z,98
2023-08-14T06:29:08.012Z,98
2023-08-14T06:30:15.133Z,98
2023-08-14T06:31:22.210Z,98
2023-08-14T06:32:28.818Z,98
2023-08-14T06:33:38.603Z,98
2023-08-14T06:34:43.010Z,98
2023-08-14T06:35:50.103Z,98
2023-08-14T06:36:57.224Z,98
2023-08-14T06:38:03.797Z,98
2023-08-14T06:39:10.887Z,98
2023-08-14T06:40:18.091Z,98
2023-08-14T06:41:25.169Z,98
2023-08-14T06:42:32.235Z,98
2023-08-14T06:43:38.806Z,98
2023-08-14T06:44:45.913Z,98
2023-08-14T06:45:52.993Z,98
2023-08-14T06:47:00.140Z,98
2023-08-14T06:48:07.214Z,98
2023-08-14T06:49:13.813Z,98
2023-08-14T06:50:20.976Z,100
2023-08-14T06:51:28.038Z,100
2023-08-14T06:52:35.168Z,100
2023-08-14T06:53:42.216Z,100
2023-08-14T06:55:55.970Z,100
2023-08-14T06:57:03.490Z,100
2023-08-14T06:58:10.181Z,100
2023-08-14T06:59:17.265Z,100
2023-08-14T07:00:23.826Z,100
2023-08-14T07:01:30.913Z,100
2023-08-14T07:02:38.124Z,100
2023-08-14T07:03:45.293Z,100
2023-08-14T07:05:58.850Z,100
2023-08-14T07:07:05.952Z,100
2023-08-14T07:08:13.051Z,100
2023-08-14T07:09:20.204Z,100
2023-08-14T07:10:27.288Z,100
2023-08-14T07:11:33.830Z,100
2023-08-14T07:12:41.027Z,100
2023-08-14T07:13:50.939Z,100
2023-08-14T07:14:55.157Z,100
2023-08-14T07:16:01.894Z,100
2023-08-14T07:17:08.871Z,100
2023-08-14T07:18:15.956Z,100
2023-08-14T07:19:23.039Z,100
2023-08-14T07:20:30.265Z,100
2023-08-14T07:21:36.780Z,100
2023-08-14T07:22:43.846Z,100
2023-08-14T07:23:51.492Z,100
2023-08-14T07:24:58.142Z,100
2023-08-14T07:26:05.289Z,100
2023-08-14T07:27:11.835Z,100
2023-08-14T07:28:18.864Z,100
2023-08-14T07:29:25.961Z,100
2023-08-14T07:30:33.130Z,100
2023-08-14T07:31:40.192Z,100
2023-08-14T07:32:46.835Z,100
2023-08-14T07:33:53.851Z,100
2023-08-14T07:35:00.991Z,100
2023-08-14T07:36:08.116Z,100
2023-08-14T07:37:15.226Z,100
2023-08-14T07:38:21.784Z,100
2023-08-14T07:39:28.857Z,100
2023-08-14T07:40:36.020Z,100
2023-08-14T07:41:43.050Z,100
2023-08-14T07:42:50.238Z,100
2023-08-14T07:43:56.776Z,100
2023-08-14T07:45:03.900Z,100
2023-08-14T07:46:11.028Z,100
2023-08-14T07:47:18.092Z,100
2023-08-14T07:48:25.212Z,100
2023-08-14T07:49:31.761Z,100
2023-08-14T07:50:39.015Z,100
2023-08-14T07:51:46.071Z,100
2023-08-14T07:52:53.111Z,99
2023-08-14T07:54:00.194Z,99
2023-08-14T07:55:06.827Z,99
2023-08-14T07:56:14.022Z,99
2023-08-14T07:57:21.025Z,99
2023-08-14T07:58:28.176Z,99
2023-08-14T07:59:35.243Z,99
2023-08-14T08:00:41.833Z,99
2023-08-14T08:01:48.963Z,99
2023-08-14T08:02:56.051Z,99
2023-08-14T08:04:03.135Z,99
2023-08-14T08:05:10.241Z,99
2023-08-14T08:06:16.850Z,99
2023-08-14T08:07:25.746Z,99
2023-08-14T08:09:38.161Z,98
2023-08-14T08:10:45.262Z,98
2023-08-14T08:11:51.810Z,98
2023-08-14T08:12:58.968Z,98
2023-08-14T08:14:06.020Z,98
2023-08-14T08:15:13.104Z,98
2023-08-14T08:16:20.328Z,98
2023-08-14T08:17:26.890Z,98
2023-08-14T08:18:33.938Z,95
2023-08-14T08:19:41.107Z,93
2023-08-14T08:20:48.170Z,92
2023-08-14T08:21:55.285Z,92
2023-08-14T08:24:08.993Z,91
2023-08-14T08:25:16.090Z,90
2023-08-14T08:26:23.157Z,89
2023-08-14T08:27:30.284Z,89
2023-08-14T08:28:36.857Z,88
2023-08-14T08:29:43.912Z,88
2023-08-14T08:30:51.009Z,87
2023-08-14T08:31:58.180Z,87
2023-08-14T08:33:04.828Z,86
2023-08-14T08:34:11.852Z,86
2023-08-14T08:35:18.973Z,86
2023-08-14T08:36:26.153Z,85
2023-08-14T08:37:33.210Z,85
2023-08-14T08:38:41.787Z,85
2023-08-14T08:39:49.553Z,85
2023-08-14T08:40:54.028Z,85
2023-08-14T08:42:01.021Z,85
2023-08-14T08:43:08.202Z,85
2023-08-14T08:44:14.800Z,85
2023-08-14T08:45:21.828Z,85
2023-08-14T08:46:28.967Z,84
2023-08-14T08:47:36.354Z,84
2023-08-14T08:48:43.236Z,84
2023-08-14T08:49:52.932Z,84
2023-08-14T08:50:57.920Z,84
2023-08-14T08:52:03.954Z,84
2023-08-14T08:53:11.075Z,84
2023-08-14T08:54:18.238Z,84
2023-08-14T08:55:24.785Z,84
2023-08-14T08:56:31.851Z,84
2023-08-14T08:57:39.018Z,84
2023-08-14T08:58:46.124Z,84
2023-08-14T08:59:53.869Z,84
2023-08-14T09:00:59.834Z,84
2023-08-14T09:02:06.943Z,84
2023-08-14T09:03:14.442Z,84
2023-08-14T09:04:21.219Z,84
2023-08-14T09:05:28.334Z,84
2023-08-14T09:06:34.841Z,85
2023-08-14T09:07:41.865Z,84
2023-08-14T09:08:49.006Z,84
2023-08-14T09:09:56.110Z,84
2023-08-14T09:11:03.214Z,84
2023-08-14T09:12:09.831Z,84
2023-08-14T09:13:22.855Z,84
2023-08-14T09:14:24.020Z,84
2023-08-14T09:15:33.184Z,85
2023-08-14T09:16:38.272Z,86
2023-08-14T09:17:44.863Z,86
2023-08-14T09:18:51.935Z,86
2023-08-14T09:20:00.254Z,86
2023-08-14T09:21:06.178Z,86
2023-08-14T09:22:13.236Z,85
2023-08-14T09:23:19.801Z,86
2023-08-14T09:24:26.927Z,86
2023-08-14T09:25:34.039Z,86
2023-08-14T09:26:41.111Z,86
2023-08-14T09:27:47.738Z,86
2023-08-14T09:28:54.873Z,86
2023-08-14T09:30:01.942Z,85
2023-08-14T09:31:09.614Z,85
2023-08-14T09:32:16.472Z,85
2023-08-14T09:33:22.706Z,84
2023-08-14T09:34:29.865Z,83
2023-08-14T09:35:36.981Z,83
2023-08-14T09:36:44.795Z,82
2023-08-14T09:37:51.188Z,82
2023-08-14T09:38:58.231Z,81
2023-08-14T09:40:04.846Z,81
2023-08-14T09:41:11.910Z,81
2023-08-14T09:42:19.283Z,81
2023-08-14T09:43:27.205Z,81
2023-08-14T09:44:32.766Z,81
2023-08-14T09:45:39.834Z,81
2023-08-14T09:46:47.014Z,81
2023-08-14T09:47:54.150Z,82
2023-08-14T09:49:01.129Z,82
2023-08-14T09:50:07.780Z,82
2023-08-14T09:51:15.034Z,82
2023-08-14T09:52:21.959Z,82
2023-08-14T09:53:29.092Z,81
2023-08-14T09:54:36.314Z,81
2023-08-14T09:55:42.755Z,81
2023-08-14T09:56:49.887Z,81
2023-08-14T09:57:56.987Z,81
2023-08-14T09:59:04.063Z,81
2023-08-14T10:00:11.162Z,80
2023-08-14T10:01:17.877Z,80
2023-08-14T10:02:25.060Z,79
2023-08-14T10:03:31.980Z,79
2023-08-14T10:04:39.101Z,78
2023-08-14T10:05:46.178Z,78
2023-08-14T10:06:52.771Z,78
2023-08-14T10:08:00.023Z,78
2023-08-14T10:09:07.002Z,78
2023-08-14T10:10:14.084Z,78
2023-08-14T10:11:21.197Z,78
2023-08-14T10:12:27.797Z,78
2023-08-14T10:13:34.984Z,78
2023-08-14T10:14:41.981Z,78
2023-08-14T10:16:55.648Z,78
2023-08-14T10:18:02.910Z,78
2023-08-14T10:19:09.885Z,78
2023-08-14T10:20:17.029Z,78
2023-08-14T10:21:24.082Z,78
2023-08-14T10:22:31.188Z,78
2023-08-14T10:23:37.807Z,78
2023-08-14T10:24:44.927Z,78
2023-08-14T10:25:52.513Z,78
2023-08-14T10:26:59.105Z,78
2023-08-14T10:28:06.754Z,78
2023-08-14T10:29:12.807Z,78
2023-08-14T10:30:19.927Z,78
2023-08-14T10:31:27.104Z,79
2023-08-14T10:32:34.524Z,79
2023-08-14T10:33:41.212Z,79
2023-08-14T10:34:48.360Z,79
2023-08-14T10:35:54.913Z,79
2023-08-14T10:37:02.024Z,79
2023-08-14T10:38:11.163Z,79
2023-08-14T10:40:22.848Z,79
2023-08-14T10:41:29.932Z,79
2023-08-14T10:42:37.045Z,79
2023-08-14T10:43:44.094Z,79
2023-08-14T10:44:50.709Z,79
2023-08-14T10:45:57.937Z,79
2023-08-14T10:47:04.951Z,79
2023-08-14T10:48:11.988Z,79
2023-08-14T10:49:19.153Z,79
2023-08-14T10:50:26.367Z,79
2023-08-14T10:51:32.812Z,79
2023-08-14T10:52:39.942Z,79
2023-08-14T10:53:50.125Z,79
2023-08-14T10:54:54.141Z,79
2023-08-14T10:56:00.752Z,79
2023-08-14T10:57:07.855Z,79
2023-08-14T10:58:14.920Z,79
2023-08-14T10:59:23.501Z,79
2023-08-14T11:00:29.183Z,79
2023-08-14T11:01:35.774Z,79
2023-08-14T11:02:42.904Z,79
2023-08-14T11:03:50.230Z,79
2023-08-14T11:04:57.056Z,80
2023-08-14T11:06:03.648Z,79
2023-08-14T11:07:10.723Z,79
2023-08-14T11:08:17.910Z,79
2023-08-14T11:09:24.984Z,80
2023-08-14T11:10:32.053Z,80
2023-08-14T11:11:39.199Z,80
2023-08-14T11:12:45.780Z,80
2023-08-14T11:13:52.879Z,80
2023-08-14T11:15:00.001Z,80
2023-08-14T11:16:07.493Z,80
2023-08-14T11:17:14.170Z,80
2023-08-14T11:18:20.792Z,81
2023-08-14T11:19:27.892Z,81
2023-08-14T11:20:35.004Z,80
2023-08-14T11:21:42.088Z,80
2023-08-14T11:22:49.172Z,80
2023-08-14T11:23:55.784Z,80
2023-08-14T11:25:02.899Z,80
2023-08-14T11:26:10.071Z,80
2023-08-14T11:27:17.113Z,80
2023-08-14T11:28:23.669Z,80
2023-08-14T11:29:32.733Z,80
2023-08-14T11:30:37.935Z,80
2023-08-14T11:31:49.670Z,80
2023-08-14T11:32:52.131Z,80
2023-08-14T11:33:58.719Z,80
2023-08-14T11:35:05.819Z,80
2023-08-14T11:36:12.935Z,80
2023-08-14T11:37:20.074Z,80
2023-08-14T11:38:27.124Z,80
2023-08-14T11:39:33.730Z,80
2023-08-14T11:40:40.801Z,79
2023-08-14T11:41:47.939Z,79
2023-08-14T11:42:55.058Z,79
2023-08-14T11:44:02.127Z,79
2023-08-14T11:45:08.725Z,79
2023-08-14T11:46:15.848Z,79
2023-08-14T11:47:23.008Z,79
2023-08-14T11:48:30.118Z,79
2023-08-14T11:49:37.164Z,79
2023-08-14T11:50:43.722Z,78
2023-08-14T11:51:50.900Z,78
2023-08-14T11:52:57.950Z,78
2023-08-14T11:54:05.045Z,78
2023-08-14T11:55:12.132Z,78
2023-08-14T11:56:19.772Z,78
2023-08-14T11:57:25.857Z,79
2023-08-14T11:58:32.886Z,79
2023-08-14T11:59:40.051Z,79
2023-08-14T12:00:47.195Z,79
2023-08-14T12:01:54.214Z,79
2023-08-14T12:03:00.980Z,79
2023-08-14T12:04:08.356Z,79
2023-08-14T12:05:15.062Z,79
2023-08-14T12:06:22.138Z,79
2023-08-14T12:07:28.763Z,79
2023-08-14T12:08:35.870Z,79
2023-08-14T12:09:42.927Z,79
2023-08-14T12:10:50.059Z,79
2023-08-14T12:11:57.207Z,79
2023-08-14T12:13:03.720Z,78
2023-08-14T12:14:10.831Z,78
2023-08-14T12:15:17.969Z,79
2023-08-14T12:16:27.074Z,79
2023-08-14T12:17:32.641Z,79
2023-08-14T12:18:38.846Z,79
2023-08-14T12:19:45.842Z,79
2023-08-14T12:20:52.928Z,79
2023-08-14T12:22:00.077Z,79
2023-08-14T12:24:13.765Z,78
2023-08-14T12:25:20.852Z,78
2023-08-14T12:26:27.989Z,78
2023-08-14T12:27:35.071Z,78
2023-08-14T12:28:43.236Z,79
2023-08-14T12:29:48.843Z,78
2023-08-14T12:30:55.883Z,79
2023-08-14T12:32:02.965Z,79
2023-08-14T12:33:10.176Z,79
2023-08-14T12:34:17.215Z,79
2023-08-14T12:35:23.792Z,78
2023-08-14T12:36:30.841Z,78
2023-08-14T12:37:38.004Z,78
2023-08-14T12:38:45.107Z,78
2023-08-14T12:39:51.698Z,78
2023-08-14T12:40:58.801Z,78
2023-08-14T12:42:06.414Z,78
2023-08-14T12:43:13.022Z,78
2023-08-14T12:44:20.185Z,77
2023-08-14T12:45:26.663Z,77
2023-08-14T12:46:33.815Z,78
2023-08-14T12:48:47.998Z,78
2023-08-14T12:49:55.132Z,78
2023-08-14T12:51:03.660Z,78
2023-08-14T12:52:10.563Z,78
2023-08-14T12:53:15.916Z,78
2023-08-14T12:54:23.006Z,78
2023-08-14T12:55:30.092Z,78
2023-08-14T12:56:36.702Z,77
2023-08-14T12:57:44.088Z,77
2023-08-14T12:58:50.926Z,77
2023-08-14T12:59:58.054Z,77
2023-08-14T13:01:05.875Z,77
2023-08-14T13:02:11.673Z,77
2023-08-14T13:03:18.832Z,77
2023-08-14T13:04:27.578Z,78
2023-08-14T13:06:40.161Z,78
2023-08-14T13:07:46.698Z,78
2023-08-14T13:08:53.814Z,79
2023-08-14T13:10:00.884Z,79
2023-08-14T13:11:08.046Z,78
2023-08-14T13:12:15.144Z,78
2023-08-14T13:13:21.681Z,77
2023-08-14T13:14:28.843Z,77
2023-08-14T13:15:35.961Z,77
2023-08-14T13:16:43.214Z,77
2023-08-14T13:17:50.199Z,77
2023-08-14T13:18:56.706Z,77
2023-08-14T13:20:03.861Z,77
2023-08-14T13:21:10.914Z,77
2023-08-14T13:22:18.059Z,77
2023-08-14T13:23:24.621Z,77
2023-08-14T13:24:32.263Z,78
2023-08-14T13:25:42.395Z,78
2023-08-14T13:27:54.599Z,78
2023-08-14T13:28:59.699Z,78
2023-08-14T13:31:13.913Z,78
2023-08-14T13:32:21.339Z,78
2023-08-14T13:33:28.082Z,78
2023-08-14T13:34:34.639Z,78
2023-08-14T13:35:41.749Z,78
2023-08-14T13:36:48.870Z,78
2023-08-14T13:37:55.959Z,77
2023-08-14T13:39:03.073Z,77
2023-08-14T13:40:09.754Z,77
2023-08-14T13:41:16.755Z,78
2023-08-14T13:42:23.860Z,77
2023-08-14T13:43:30.949Z,77
2023-08-14T13:44:38.044Z,78
2023-08-14T13:45:45.255Z,78
2023-08-14T13:46:51.802Z,78
2023-08-14T13:47:59.229Z,78
2023-08-14T13:49:05.995Z,78
2023-08-14T13:50:19.708Z,78
2023-08-14T13:51:19.738Z,78
2023-08-14T13:52:29.665Z,78
2023-08-14T13:53:33.821Z,78
2023-08-14T13:54:40.935Z,78
2023-08-14T13:55:48.096Z,78
2023-08-14T13:56:55.420Z,78
2023-08-14T13:58:01.786Z,78
2023-08-14T13:59:08.865Z,78
2023-08-14T14:00:16.009Z,78
2023-08-14T14:01:23.122Z,78
2023-08-14T14:02:29.721Z,78
2023-08-14T14:03:37.280Z,78
2023-08-14T14:04:43.839Z,78
2023-08-14T14:05:51.001Z,78
2023-08-14T14:06:58.115Z,78
2023-08-14T14:08:04.692Z,77
2023-08-14T14:09:11.783Z,77
2023-08-14T14:10:18.897Z,77
2023-08-14T14:11:26.007Z,77
2023-08-14T14:12:33.665Z,78
2023-08-14T14:13:39.704Z,77
2023-08-14T14:14:46.822Z,77
2023-08-14T14:15:53.932Z,77
2023-08-14T14:17:00.982Z,77
2023-08-14T14:18:08.116Z,77
2023-08-14T14:19:14.725Z,77
2023-08-14T14:20:21.825Z,77
2023-08-14T14:21:28.944Z,77
2023-08-14T14:22:36.026Z,77
2023-08-14T14:23:42.586Z,77
2023-08-14T14:24:49.724Z,77
2023-08-14T14:25:56.852Z,77
2023-08-14T14:27:03.912Z,77
2023-08-14T14:28:11.028Z,77
2023-08-14T14:29:17.654Z,77
2023-08-14T14:30:24.661Z,77
2023-08-14T14:31:31.811Z,77
2023-08-14T14:32:39.052Z,77
2023-08-14T14:33:46.034Z,77
2023-08-14T14:34:52.578Z,77
2023-08-14T14:35:59.706Z,77
2023-08-14T14:37:06.833Z,77
2023-08-14T14:38:13.905Z,77
2023-08-14T14:39:21.018Z,77
2023-08-14T14:40:28.303Z,77
2023-08-14T14:41:34.741Z,77
2023-08-14T14:42:41.789Z,77
2023-08-14T14:43:50.609Z,77
2023-08-14T14:44:56.078Z,77
2023-08-14T14:46:02.656Z,76
2023-08-14T14:47:09.755Z,76
2023-08-14T14:48:16.854Z,76
2023-08-14T14:49:23.393Z,76
2023-08-14T14:50:31.261Z,76
2023-08-14T14:51:37.665Z,76
2023-08-14T14:52:45.274Z,76
2023-08-14T14:53:51.819Z,76
2023-08-14T14:54:58.930Z,75
2023-08-14T14:56:06.065Z,75
2023-08-14T14:57:12.642Z,75
2023-08-14T14:58:19.816Z,75
2023-08-14T14:59:26.806Z,75
2023-08-14T15:00:33.942Z,74
2023-08-14T15:01:41.139Z,74
2023-08-14T15:02:47.763Z,75
2023-08-14T15:03:54.841Z,75
2023-08-14T15:05:05.780Z,75
2023-08-14T15:06:08.949Z,75
2023-08-14T15:07:16.087Z,75
2023-08-14T15:08:22.660Z,75
2023-08-14T15:09:29.819Z,75
2023-08-14T15:10:37.923Z,75
2023-08-14T15:11:43.939Z,75
2023-08-14T15:12:51.110Z,75
2023-08-14T15:13:57.685Z,75
2023-08-14T15:15:04.763Z,74
2023-08-14T15:16:11.873Z,74
2023-08-14T15:17:19.186Z,74
2023-08-14T15:18:25.680Z,74
2023-08-14T15:19:32.648Z,74
2023-08-14T15:20:40.796Z,74
2023-08-14T15:21:46.912Z,74
2023-08-14T15:22:53.974Z,74
2023-08-14T15:24:00.556Z,74
2023-08-14T15:25:07.721Z,73
2023-08-14T15:26:14.830Z,73
2023-08-14T15:27:21.881Z,73
2023-08-14T15:28:28.980Z,73
2023-08-14T15:29:35.531Z,73
2023-08-14T15:30:42.655Z,73
2023-08-14T15:31:49.821Z,73
2023-08-14T15:32:56.939Z,73
2023-08-14T15:35:10.539Z,74
2023-08-14T15:36:17.678Z,74
2023-08-14T15:37:24.816Z,73
2023-08-14T15:38:31.893Z,73
2023-08-14T15:39:39.055Z,73
2023-08-14T15:40:45.545Z,73
2023-08-14T15:41:52.695Z,73
2023-08-14T15:42:59.827Z,73
2023-08-14T15:45:14.747Z,66
2023-08-14T15:46:20.569Z,73
2023-08-14T15:47:27.729Z,74
2023-08-14T15:48:34.810Z,73
2023-08-14T15:49:41.911Z,73
2023-08-14T15:50:49.334Z,73
2023-08-14T15:51:55.680Z,73
2023-08-14T15:53:03.256Z,73
2023-08-14T15:54:09.805Z,73
2023-08-14T15:55:16.949Z,73
2023-08-14T15:56:24.019Z,73
2023-08-14T15:57:30.586Z,73
2023-08-14T15:58:37.756Z,73
2023-08-14T15:59:44.827Z,73
2023-08-14T16:00:51.923Z,73
2023-08-14T16:01:59.045Z,72
2023-08-14T16:03:07.400Z,72
2023-08-14T16:04:12.764Z,72
2023-08-14T16:05:19.871Z,72
2023-08-14T16:06:26.934Z,72
2023-08-14T16:07:34.081Z,72
2023-08-14T16:08:40.613Z,72
2023-08-14T16:09:47.741Z,72
2023-08-14T16:10:54.876Z,72
2023-08-14T16:12:01.991Z,72
2023-08-14T16:13:09.074Z,72
2023-08-14T16:14:15.664Z,72
2023-08-14T16:15:22.761Z,72
2023-08-14T16:16:29.912Z,72
2023-08-14T16:17:36.993Z,72
2023-08-14T16:18:44.073Z,72
2023-08-14T16:19:50.667Z,72
2023-08-14T16:21:00.369Z,72
2023-08-14T16:22:04.888Z,72
2023-08-14T16:23:11.915Z,72
2023-08-14T16:24:19.096Z,72
2023-08-14T16:25:25.678Z,72
2023-08-14T16:26:32.740Z,72
2023-08-14T16:27:39.874Z,72
2023-08-14T16:28:46.920Z,72
2023-08-14T16:29:53.524Z,72
2023-08-14T16:31:00.704Z,72
2023-08-14T16:32:07.778Z,72
2023-08-14T16:33:14.923Z,72
2023-08-14T16:34:21.952Z,72
2023-08-14T16:35:28.590Z,72
2023-08-14T16:36:35.700Z,72
2023-08-14T16:38:49.910Z,72
2023-08-14T16:39:56.967Z,73
2023-08-14T16:41:03.553Z,73
2023-08-14T16:42:10.678Z,72
2023-08-14T16:43:17.789Z,72